createdAt,value
2023-05-19T00:00:12.393Z,95074.00
2023-05-19T00:01:12.422Z,95074.00
2023-05-19T00:02:12.564Z,95076.00
2023-05-19T00:03:12.614Z,95072.00
2023-05-19T00:04:12.571Z,95074.00
2023-05-19T00:05:12.613Z,95072.00
2023-05-19T00:06:12.688Z,95070.00
2023-05-19T00:07:12.669Z,95070.00
2023-05-19T00:08:12.671Z,95068.00
2023-05-19T00:09:12.748Z,95066.00
2023-05-19T00:10:12.707Z,95064.00
2023-05-19T00:11:12.749Z,95066.00
2023-05-19T00:12:12.763Z,95066.00
2023-05-19T00:13:12.781Z,95066.00
2023-05-19T00:14:12.821Z,95064.00
2023-05-19T00:15:12.806Z,95064.00
2023-05-19T00:16:12.888Z,95066.00
2023-05-19T00:17:12.900Z,95066.00
2023-05-19T00:18:12.923Z,95066.00
2023-05-19T00:19:12.949Z,95068.00
2023-05-19T00:20:12.956Z,95066.00
2023-05-19T00:21:12.976Z,95066.00
2023-05-19T00:22:13.073Z,95070.00
2023-05-19T00:23:13.143Z,95072.00
2023-05-19T00:24:13.171Z,95072.00
2023-05-19T00:25:13.191Z,95070.00
2023-05-19T00:26:13.240Z,95072.00
2023-05-19T00:27:13.332Z,95070.00
2023-05-19T00:28:13.300Z,95072.00
2023-05-19T00:29:13.402Z,95072.00
2023-05-19T00:30:13.359Z,95070.00
2023-05-19T00:31:13.419Z,95072.00
2023-05-19T00:32:13.518Z,95070.00
2023-05-19T00:33:13.426Z,95068.00
2023-05-19T00:34:13.420Z,95074.00
2023-05-19T00:35:13.484Z,95072.00
2023-05-19T00:36:13.486Z,95072.00
2023-05-19T00:37:13.495Z,95072.00
2023-05-19T00:38:13.493Z,95072.00
2023-05-19T00:39:13.511Z,95070.00
2023-05-19T00:40:13.526Z,95068.00
2023-05-19T00:41:13.511Z,95068.00
2023-05-19T00:42:13.556Z,95068.00
2023-05-19T00:43:13.587Z,95064.00
2023-05-19T00:44:13.624Z,95066.00
2023-05-19T00:45:13.691Z,95064.00
2023-05-19T00:46:13.692Z,95062.00
2023-05-19T00:47:13.670Z,95066.00
2023-05-19T00:48:13.674Z,95064.00
2023-05-19T00:49:13.673Z,95066.00
2023-05-19T00:50:13.737Z,95066.00
2023-05-19T00:51:13.775Z,95064.00
2023-05-19T00:52:13.758Z,95062.00
2023-05-19T00:53:13.792Z,95062.00
2023-05-19T00:54:13.787Z,95066.00
2023-05-19T00:55:13.815Z,95064.00
2023-05-19T00:56:13.833Z,95060.00
2023-05-19T00:57:13.864Z,95060.00
2023-05-19T00:58:13.843Z,95056.00
2023-05-19T00:59:13.876Z,95058.00
2023-05-19T01:00:13.906Z,95056.00
2023-05-19T01:01:13.970Z,95058.00
2023-05-19T01:02:13.956Z,95056.00
2023-05-19T01:03:14.118Z,95058.00
2023-05-19T01:04:14.010Z,95058.00
2023-05-19T01:05:14.058Z,95058.00
2023-05-19T01:06:14.058Z,95058.00
2023-05-19T01:07:14.108Z,95060.00
2023-05-19T01:08:14.153Z,95058.00
2023-05-19T01:09:14.102Z,95056.00
2023-05-19T01:10:14.162Z,95058.00
2023-05-19T01:11:14.156Z,95060.00
2023-05-19T01:12:14.210Z,95058.00
2023-05-19T01:13:14.299Z,95056.00
2023-05-19T01:14:14.291Z,95058.00
2023-05-19T01:15:14.294Z,95056.00
2023-05-19T01:16:14.341Z,95058.00
2023-05-19T01:17:14.306Z,95058.00
2023-05-19T01:18:14.367Z,95056.00
2023-05-19T01:19:14.375Z,95054.00
2023-05-19T01:20:14.354Z,95058.00
2023-05-19T01:21:14.358Z,95056.00
2023-05-19T01:22:14.367Z,95054.00
2023-05-19T01:23:14.368Z,95054.00
2023-05-19T01:24:14.412Z,95054.00
2023-05-19T01:25:14.393Z,95052.00
2023-05-19T01:26:14.436Z,95056.00
2023-05-19T01:27:14.420Z,95054.00
2023-05-19T01:28:14.426Z,95056.00
2023-05-19T01:29:14.437Z,95054.00
2023-05-19T01:30:14.448Z,95054.00
2023-05-19T01:31:14.454Z,95056.00
2023-05-19T01:32:14.519Z,95056.00
2023-05-19T01:33:14.588Z,95056.00
2023-05-19T01:34:14.526Z,95058.00
2023-05-19T01:35:14.512Z,95054.00
2023-05-19T01:36:14.542Z,95054.00
2023-05-19T01:37:14.538Z,95054.00
2023-05-19T01:38:14.584Z,95052.00
2023-05-19T01:39:14.572Z,95054.00
2023-05-19T01:40:14.589Z,95056.00
2023-05-19T01:41:14.570Z,95054.00
2023-05-19T01:42:14.621Z,95052.00
2023-05-19T01:43:14.612Z,95054.00
2023-05-19T01:44:14.650Z,95052.00
2023-05-19T01:45:14.647Z,95054.00
2023-05-19T01:46:14.673Z,95058.00
2023-05-19T01:47:14.699Z,95056.00
2023-05-19T01:48:14.763Z,95054.00
2023-05-19T01:49:14.716Z,95058.00
2023-05-19T01:50:14.716Z,95056.00
2023-05-19T01:51:14.733Z,95054.00
2023-05-19T01:52:14.738Z,95058.00
2023-05-19T01:53:14.750Z,95058.00
2023-05-19T01:54:14.781Z,95058.00
2023-05-19T01:55:14.791Z,95056.00
2023-05-19T01:56:14.796Z,95054.00
2023-05-19T01:57:14.816Z,95056.00
2023-05-19T01:58:14.843Z,95054.00
2023-05-19T01:59:14.840Z,95056.00
2023-05-19T02:00:14.845Z,95056.00
2023-05-19T02:01:14.910Z,95058.00
2023-05-19T02:02:14.920Z,95058.00
2023-05-19T02:03:14.943Z,95056.00
2023-05-19T02:04:15.023Z,95056.00
2023-05-19T02:05:15.019Z,95058.00
2023-05-19T02:06:15.060Z,95058.00
2023-05-19T02:07:15.081Z,95056.00
2023-05-19T02:08:15.119Z,95056.00
2023-05-19T02:09:15.186Z,95058.00
2023-05-19T02:10:15.232Z,95058.00
2023-05-19T02:11:15.253Z,95064.00
2023-05-19T02:12:15.299Z,95062.00
2023-05-19T02:13:15.305Z,95060.00
2023-05-19T02:14:15.334Z,95062.00
2023-05-19T02:15:15.394Z,95062.00
2023-05-19T02:16:15.502Z,95064.00
2023-05-19T02:17:15.496Z,95062.00
2023-05-19T02:18:15.556Z,95062.00
2023-05-19T02:19:15.628Z,95066.00
2023-05-19T02:20:15.620Z,95062.00
2023-05-19T02:21:15.658Z,95064.00
2023-05-19T02:22:15.683Z,95064.00
2023-05-19T02:23:15.702Z,95062.00
2023-05-19T02:24:15.765Z,95062.00
2023-05-19T02:25:15.798Z,95064.00
2023-05-19T02:26:15.816Z,95064.00
2023-05-19T02:27:15.842Z,95062.00
2023-05-19T02:28:16.532Z,95064.00
2023-05-19T02:29:15.891Z,95062.00
2023-05-19T02:30:15.935Z,95062.00
2023-05-19T02:31:15.923Z,95062.00
2023-05-19T02:32:15.981Z,95062.00
2023-05-19T02:33:15.981Z,95062.00
2023-05-19T02:34:16.031Z,95062.00
2023-05-19T02:35:16.050Z,95066.00
2023-05-19T02:36:16.052Z,95066.00
2023-05-19T02:37:16.083Z,95064.00
2023-05-19T02:38:16.067Z,95064.00
2023-05-19T02:39:16.078Z,95064.00
2023-05-19T02:40:16.153Z,95064.00
2023-05-19T02:41:16.113Z,95066.00
2023-05-19T02:42:16.163Z,95060.00
2023-05-19T02:43:16.171Z,95062.00
2023-05-19T02:44:16.208Z,95058.00
2023-05-19T02:45:16.237Z,95058.00
2023-05-19T02:46:16.306Z,95058.00
2023-05-19T02:47:16.303Z,95062.00
2023-05-19T02:48:16.368Z,95062.00
2023-05-19T02:49:16.371Z,95062.00
2023-05-19T02:50:16.410Z,95060.00
2023-05-19T02:51:16.495Z,95060.00
2023-05-19T02:52:16.456Z,95054.00
2023-05-19T02:53:16.453Z,95054.00
2023-05-19T02:54:16.471Z,95058.00
2023-05-19T02:55:16.510Z,95056.00
2023-05-19T02:56:16.516Z,95052.00
2023-05-19T02:57:16.557Z,95054.00
2023-05-19T02:58:16.608Z,95054.00
2023-05-19T02:59:16.608Z,95052.00
2023-05-19T03:00:16.653Z,95054.00
2023-05-19T03:01:16.788Z,95054.00
2023-05-19T03:02:16.714Z,95054.00
2023-05-19T03:03:16.804Z,95052.00
2023-05-19T03:04:16.706Z,95050.00
2023-05-19T03:05:16.769Z,95052.00
2023-05-19T03:06:16.751Z,95050.00
2023-05-19T03:07:16.772Z,95050.00
2023-05-19T03:08:16.777Z,95046.00
2023-05-19T03:09:16.810Z,95046.00
2023-05-19T03:10:16.865Z,95044.00
2023-05-19T03:11:16.839Z,95046.00
2023-05-19T03:12:16.874Z,95044.00
2023-05-19T03:13:17.000Z,95048.00
2023-05-19T03:14:16.918Z,95044.00
2023-05-19T03:15:16.951Z,95044.00
2023-05-19T03:16:16.937Z,95044.00
2023-05-19T03:17:17.018Z,95044.00
2023-05-19T03:18:17.015Z,95042.00
2023-05-19T03:19:17.044Z,95044.00
2023-05-19T03:20:16.979Z,95040.00
2023-05-19T03:21:17.031Z,95044.00
2023-05-19T03:22:17.057Z,95042.00
2023-05-19T03:23:17.077Z,95042.00
2023-05-19T03:24:17.072Z,95042.00
2023-05-19T03:25:17.102Z,95042.00
2023-05-19T03:26:17.212Z,95040.00
2023-05-19T03:27:17.147Z,95040.00
2023-05-19T03:28:17.252Z,95042.00
2023-05-19T03:29:17.207Z,95042.00
2023-05-19T03:30:17.198Z,95042.00
2023-05-19T03:31:17.244Z,95042.00
2023-05-19T03:32:17.292Z,95042.00
2023-05-19T03:33:17.310Z,95044.00
2023-05-19T03:34:17.989Z,95042.00
2023-05-19T03:35:17.271Z,95044.00
2023-05-19T03:36:17.317Z,95044.00
2023-05-19T03:37:17.324Z,95044.00
2023-05-19T03:38:17.372Z,95042.00
2023-05-19T03:39:17.447Z,95044.00
2023-05-19T03:40:17.444Z,95046.00
2023-05-19T03:41:17.448Z,95044.00
2023-05-19T03:42:17.506Z,95042.00
2023-05-19T03:43:17.520Z,95046.00
2023-05-19T03:44:17.531Z,95044.00
2023-05-19T03:45:17.572Z,95044.00
2023-05-19T03:46:17.694Z,95040.00
2023-05-19T03:47:17.664Z,95044.00
2023-05-19T03:48:20.367Z,95042.00
2023-05-19T03:49:17.733Z,95042.00
2023-05-19T03:50:17.720Z,95040.00
2023-05-19T03:51:17.716Z,95044.00
2023-05-19T03:52:17.652Z,95042.00
2023-05-19T03:53:17.697Z,95044.00
2023-05-19T03:54:17.677Z,95046.00
2023-05-19T03:55:17.640Z,95046.00
2023-05-19T03:56:17.651Z,95048.00
2023-05-19T03:57:17.724Z,95046.00
2023-05-19T03:58:17.615Z,95054.00
2023-05-19T03:59:17.634Z,95056.00
2023-05-19T04:00:17.603Z,95054.00
2023-05-19T04:01:17.605Z,95056.00
2023-05-19T04:02:17.606Z,95054.00
2023-05-19T04:03:17.774Z,95052.00
2023-05-19T04:04:17.672Z,95050.00
2023-05-19T04:05:17.582Z,95046.00
2023-05-19T04:06:17.604Z,95048.00
2023-05-19T04:07:17.568Z,95046.00
2023-05-19T04:08:17.564Z,95046.00
2023-05-19T04:09:17.593Z,95042.00
2023-05-19T04:10:17.573Z,95046.00
2023-05-19T04:11:17.538Z,95048.00
2023-05-19T04:12:17.547Z,95048.00
2023-05-19T04:13:17.524Z,95042.00
2023-05-19T04:14:17.513Z,95044.00
2023-05-19T04:15:17.499Z,95044.00
2023-05-19T04:16:17.599Z,95044.00
2023-05-19T04:17:17.524Z,95044.00
2023-05-19T04:18:17.516Z,95046.00
2023-05-19T04:19:17.826Z,95042.00
2023-05-19T04:20:17.487Z,95048.00
2023-05-19T04:21:17.475Z,95048.00
2023-05-19T04:22:17.511Z,95048.00
2023-05-19T04:23:17.443Z,95044.00
2023-05-19T04:24:17.445Z,95048.00
2023-05-19T04:25:17.463Z,95048.00
2023-05-19T04:26:17.421Z,95048.00
2023-05-19T04:27:17.427Z,95050.00
2023-05-19T04:28:17.400Z,95050.00
2023-05-19T04:29:17.447Z,95052.00
2023-05-19T04:30:18.583Z,95052.00
2023-05-19T04:31:17.424Z,95052.00
2023-05-19T04:32:17.458Z,95054.00
2023-05-19T04:33:17.383Z,95052.00
2023-05-19T04:34:17.383Z,95056.00
2023-05-19T04:35:17.379Z,95052.00
2023-05-19T04:36:17.361Z,95056.00
2023-05-19T04:37:17.353Z,95054.00
2023-05-19T04:38:17.378Z,95056.00
2023-05-19T04:39:17.333Z,95054.00
2023-05-19T04:40:17.342Z,95052.00
2023-05-19T04:41:17.352Z,95052.00
2023-05-19T04:42:17.309Z,95054.00
2023-05-19T04:43:17.328Z,95058.00
2023-05-19T04:44:17.338Z,95058.00
2023-05-19T04:45:17.292Z,95058.00
2023-05-19T04:46:17.329Z,95058.00
2023-05-19T04:47:17.287Z,95058.00
2023-05-19T04:48:17.302Z,95060.00
2023-05-19T04:49:17.371Z,95058.00
2023-05-19T04:50:17.373Z,95054.00
2023-05-19T04:51:17.379Z,95052.00
2023-05-19T04:52:17.425Z,95054.00
2023-05-19T04:53:17.458Z,95054.00
2023-05-19T04:54:17.501Z,95058.00
2023-05-19T04:55:17.533Z,95058.00
2023-05-19T04:56:17.517Z,95062.00
2023-05-19T04:57:17.513Z,95056.00
2023-05-19T04:58:17.569Z,95056.00
2023-05-19T04:59:17.567Z,95052.00
2023-05-19T05:00:17.605Z,95056.00
2023-05-19T05:01:17.764Z,95050.00
2023-05-19T05:02:17.708Z,95052.00
2023-05-19T05:03:17.883Z,95054.00
2023-05-19T05:04:17.786Z,95054.00
2023-05-19T05:05:17.810Z,95056.00
2023-05-19T05:06:17.804Z,95058.00
2023-05-19T05:07:17.816Z,95060.00
2023-05-19T05:08:17.881Z,95058.00
2023-05-19T05:09:17.873Z,95054.00
2023-05-19T05:10:17.897Z,95054.00
2023-05-19T05:11:18.023Z,95054.00
2023-05-19T05:12:18.021Z,95052.00
2023-05-19T05:13:18.063Z,95050.00
2023-05-19T05:14:18.068Z,95052.00
2023-05-19T05:15:18.093Z,95054.00
2023-05-19T05:16:18.116Z,95054.00
2023-05-19T05:17:18.102Z,95052.00
2023-05-19T05:18:18.099Z,95052.00
2023-05-19T05:19:18.143Z,95052.00
2023-05-19T05:20:18.197Z,95048.00
2023-05-19T05:21:18.220Z,95052.00
2023-05-19T05:22:18.238Z,95050.00
2023-05-19T05:23:18.244Z,95050.00
2023-05-19T05:24:18.243Z,95046.00
2023-05-19T05:25:18.314Z,95046.00
2023-05-19T05:26:18.360Z,95044.00
2023-05-19T05:27:18.344Z,95050.00
2023-05-19T05:28:18.362Z,95048.00
2023-05-19T05:29:18.386Z,95048.00
2023-05-19T05:30:18.394Z,95052.00
2023-05-19T05:31:18.469Z,95048.00
2023-05-19T05:32:18.547Z,95046.00
2023-05-19T05:33:18.711Z,95046.00
2023-05-19T05:34:18.559Z,95046.00
2023-05-19T05:35:18.574Z,95046.00
2023-05-19T05:36:18.534Z,95044.00
2023-05-19T05:37:18.575Z,95046.00
2023-05-19T05:38:18.649Z,95042.00
2023-05-19T05:39:18.649Z,95046.00
2023-05-19T05:40:18.657Z,95048.00
2023-05-19T05:41:18.715Z,95046.00
2023-05-19T05:42:18.770Z,95046.00
2023-05-19T05:43:18.757Z,95048.00
2023-05-19T05:44:18.766Z,95048.00
2023-05-19T05:45:18.824Z,95046.00
2023-05-19T05:46:18.892Z,95044.00
2023-05-19T05:47:18.899Z,95044.00
2023-05-19T05:48:18.913Z,95050.00
2023-05-19T05:49:18.970Z,95044.00
2023-05-19T05:50:19.023Z,95044.00
2023-05-19T05:51:19.052Z,95046.00
2023-05-19T05:52:19.020Z,95040.00
2023-05-19T05:53:19.046Z,95044.00
2023-05-19T05:54:19.104Z,95044.00
2023-05-19T05:55:19.113Z,95044.00
2023-05-19T05:56:19.164Z,95042.00
2023-05-19T05:57:19.218Z,95040.00
2023-05-19T05:58:19.226Z,95042.00
2023-05-19T05:59:19.274Z,95038.00
2023-05-19T06:00:19.354Z,95038.00
2023-05-19T06:01:19.389Z,95042.00
2023-05-19T06:02:19.440Z,95040.00
2023-05-19T06:03:19.541Z,95042.00
2023-05-19T06:04:19.526Z,95040.00
2023-05-19T06:05:19.585Z,95038.00
2023-05-19T06:06:19.548Z,95040.00
2023-05-19T06:07:19.602Z,95040.00
2023-05-19T06:08:19.596Z,95038.00
2023-05-19T06:09:19.612Z,95040.00
2023-05-19T06:10:19.616Z,95042.00
2023-05-19T06:11:19.644Z,95038.00
2023-05-19T06:12:19.723Z,95038.00
2023-05-19T06:13:19.793Z,95036.00
2023-05-19T06:14:19.848Z,95033.00
2023-05-19T06:15:19.847Z,95031.00
2023-05-19T06:16:19.878Z,95035.00
2023-05-19T06:17:19.921Z,95035.00
2023-05-19T06:18:19.982Z,95035.00
2023-05-19T06:19:20.047Z,95035.00
2023-05-19T06:20:20.039Z,95038.00
2023-05-19T06:21:20.026Z,95038.00
2023-05-19T06:22:20.066Z,95035.00
2023-05-19T06:23:20.107Z,95038.00
2023-05-19T06:24:20.164Z,95038.00
2023-05-19T06:25:20.189Z,95040.00
2023-05-19T06:26:20.214Z,95040.00
2023-05-19T06:27:20.307Z,95038.00
2023-05-19T06:28:20.312Z,95042.00
2023-05-19T06:29:20.388Z,95040.00
2023-05-19T06:30:20.407Z,95036.00
2023-05-19T06:31:20.479Z,95040.00
2023-05-19T06:32:20.491Z,95036.00
2023-05-19T06:33:20.519Z,95035.00
2023-05-19T06:34:20.559Z,95033.00
2023-05-19T06:35:20.534Z,95033.00
2023-05-19T06:36:20.593Z,95033.00
2023-05-19T06:37:20.616Z,95033.00
2023-05-19T06:38:20.595Z,95035.00
2023-05-19T06:39:20.670Z,95035.00
2023-05-19T06:40:20.727Z,95031.00
2023-05-19T06:41:20.767Z,95033.00
2023-05-19T06:42:20.856Z,95035.00
2023-05-19T06:43:20.836Z,95033.00
2023-05-19T06:44:21.228Z,95033.00
2023-05-19T06:45:20.900Z,95029.00
2023-05-19T06:46:20.996Z,95029.00
2023-05-19T06:47:20.972Z,95033.00
2023-05-19T06:48:20.970Z,95031.00
2023-05-19T06:49:21.016Z,95033.00
2023-05-19T06:50:21.038Z,95035.00
2023-05-19T06:51:21.100Z,95031.00
2023-05-19T06:52:21.125Z,95033.00
2023-05-19T06:53:21.156Z,95035.00
2023-05-19T06:54:21.154Z,95033.00
2023-05-19T06:55:21.204Z,95033.00
2023-05-19T06:56:21.273Z,95029.00
2023-05-19T06:57:21.259Z,95027.00
2023-05-19T06:58:21.298Z,95029.00
2023-05-19T06:59:21.300Z,95025.00
2023-05-19T07:00:23.091Z,95031.00
2023-05-19T07:01:21.394Z,95029.00
2023-05-19T07:02:21.381Z,95025.00
2023-05-19T07:03:21.422Z,95029.00
2023-05-19T07:04:21.333Z,95027.00
2023-05-19T07:05:21.332Z,95025.00
2023-05-19T07:06:21.333Z,95027.00
2023-05-19T07:07:21.353Z,95023.00
2023-05-19T07:08:21.328Z,95023.00
2023-05-19T07:09:21.338Z,95023.00
2023-05-19T07:10:21.275Z,95025.00
2023-05-19T07:11:21.290Z,95029.00
2023-05-19T07:12:21.321Z,95031.00
2023-05-19T07:13:21.291Z,95027.00
2023-05-19T07:14:21.262Z,95025.00
2023-05-19T07:15:21.291Z,95027.00
2023-05-19T07:16:21.284Z,95027.00
2023-05-19T07:17:21.259Z,95027.00
2023-05-19T07:18:21.269Z,95027.00
2023-05-19T07:19:21.400Z,95023.00
2023-05-19T07:20:21.234Z,95023.00
2023-05-19T07:21:21.237Z,95021.00
2023-05-19T07:22:21.216Z,95019.00
2023-05-19T07:23:21.234Z,95019.00
2023-05-19T07:24:21.216Z,95021.00
2023-05-19T07:25:21.203Z,95021.00
2023-05-19T07:26:21.184Z,95021.00
2023-05-19T07:27:21.196Z,95023.00
2023-05-19T07:28:21.205Z,95019.00
2023-05-19T07:29:21.179Z,95017.00
2023-05-19T07:30:21.186Z,95013.00
2023-05-19T07:31:21.204Z,95017.00
2023-05-19T07:32:21.301Z,95015.00
2023-05-19T07:33:21.159Z,95007.00
2023-05-19T07:34:21.152Z,95009.00
2023-05-19T07:35:21.178Z,95005.00
2023-05-19T07:36:21.141Z,95003.00
2023-05-19T07:37:21.133Z,95007.00
2023-05-19T07:38:21.137Z,95005.00
2023-05-19T07:39:21.209Z,95005.00
2023-05-19T07:40:21.123Z,95005.00
2023-05-19T07:41:21.094Z,95005.00
2023-05-19T07:42:21.119Z,94999.00
2023-05-19T07:43:21.078Z,94999.00
2023-05-19T07:44:21.082Z,94999.00
2023-05-19T07:45:21.080Z,95001.00
2023-05-19T07:46:21.129Z,95003.00
2023-05-19T07:48:13.668Z,94999.00
2023-05-19T07:49:13.584Z,94999.00
2023-05-19T07:50:13.611Z,94993.00
2023-05-19T07:51:13.585Z,94995.00
2023-05-19T07:52:13.549Z,94999.00
2023-05-19T07:53:13.557Z,94993.00
2023-05-19T07:54:13.561Z,94993.00
2023-05-19T07:55:13.549Z,94993.00
2023-05-19T07:56:13.552Z,94993.00
2023-05-19T07:57:13.539Z,94993.00
2023-05-19T07:58:13.518Z,94989.00
2023-05-19T07:59:13.534Z,94987.00
2023-05-19T08:00:13.531Z,94985.00
2023-05-19T08:01:13.517Z,94985.00
2023-05-19T08:02:13.503Z,94989.00
2023-05-19T08:03:13.800Z,94989.00
2023-05-19T08:04:13.590Z,94984.00
2023-05-19T08:05:13.536Z,94982.00
2023-05-19T08:06:13.482Z,94982.00
2023-05-19T08:07:13.439Z,94978.00
2023-05-19T08:08:13.451Z,94976.00
2023-05-19T08:09:13.455Z,94978.00
2023-05-19T08:10:13.452Z,94976.00
2023-05-19T08:11:13.440Z,94978.00
2023-05-19T08:12:13.426Z,94980.00
2023-05-19T08:13:13.434Z,94980.00
2023-05-19T08:14:13.437Z,94980.00
2023-05-19T08:15:13.381Z,94978.00
2023-05-19T08:16:13.442Z,94980.00
2023-05-19T08:17:13.368Z,94976.00
2023-05-19T08:18:13.509Z,94978.00
2023-05-19T08:19:13.499Z,94978.00
2023-05-19T08:20:13.426Z,94974.00
2023-05-19T08:21:13.517Z,94972.00
2023-05-19T08:22:13.616Z,94972.00
2023-05-19T08:23:13.590Z,94972.00
2023-05-19T08:24:13.580Z,94970.00
2023-05-19T08:25:13.654Z,94972.00
2023-05-19T08:26:14.270Z,94970.00
2023-05-19T08:27:13.705Z,94970.00
2023-05-19T08:28:13.733Z,94968.00
2023-05-19T08:29:13.788Z,94968.00
2023-05-19T08:30:13.799Z,94966.00
2023-05-19T08:31:13.868Z,94966.00
2023-05-19T08:32:13.838Z,94964.00
2023-05-19T08:33:13.906Z,94970.00
2023-05-19T08:34:13.902Z,94966.00
2023-05-19T08:35:13.910Z,94964.00
2023-05-19T08:36:13.920Z,94962.00
2023-05-19T08:37:13.973Z,94960.00
2023-05-19T08:38:14.042Z,94958.00
2023-05-19T08:39:14.066Z,94956.00
2023-05-19T08:40:14.115Z,94958.00
2023-05-19T08:41:14.136Z,94958.00
2023-05-19T08:42:14.155Z,94956.00
2023-05-19T08:43:14.217Z,94958.00
2023-05-19T08:44:14.996Z,94958.00
2023-05-19T08:45:14.242Z,94958.00
2023-05-19T08:46:14.262Z,94958.00
2023-05-19T08:47:14.305Z,94952.00
2023-05-19T08:48:14.370Z,94948.00
2023-05-19T08:49:14.363Z,94944.00
2023-05-19T08:50:14.368Z,94944.00
2023-05-19T08:51:14.416Z,94940.00
2023-05-19T08:52:14.415Z,94938.00
2023-05-19T08:54:15.464Z,94940.00
2023-05-19T08:55:14.467Z,94936.00
2023-05-19T08:56:14.450Z,94927.00
2023-05-19T08:57:14.480Z,94936.00
2023-05-19T08:58:14.428Z,94942.00
2023-05-19T08:59:14.414Z,94938.00
2023-05-19T09:00:14.434Z,94936.00
2023-05-19T09:01:14.498Z,94936.00
2023-05-19T09:02:14.398Z,94940.00
2023-05-19T09:04:14.479Z,94934.00
2023-05-19T09:05:14.414Z,94934.00
2023-05-19T09:06:14.427Z,94931.00
2023-05-19T09:07:14.365Z,94931.00
2023-05-19T09:08:14.382Z,94929.00
2023-05-19T09:09:14.334Z,94933.00
2023-05-19T09:10:14.370Z,94929.00
2023-05-19T09:11:14.356Z,94933.00
2023-05-19T09:12:14.352Z,94929.00
2023-05-19T09:13:14.359Z,94927.00
2023-05-19T09:14:14.328Z,94927.00
2023-05-19T09:15:14.323Z,94925.00
2023-05-19T09:16:14.365Z,94921.00
2023-05-19T09:17:14.300Z,94917.00
2023-05-19T09:18:14.317Z,94921.00
2023-05-19T09:19:14.323Z,94917.00
2023-05-19T09:20:14.313Z,94915.00
2023-05-19T09:21:14.307Z,94917.00
2023-05-19T09:22:14.297Z,94913.00
2023-05-19T09:23:14.301Z,94913.00
2023-05-19T09:24:14.293Z,94915.00
2023-05-19T09:25:14.234Z,94911.00
2023-05-19T09:26:14.294Z,94913.00
2023-05-19T09:27:14.268Z,94905.00
2023-05-19T09:28:14.241Z,94903.00
2023-05-19T09:29:14.290Z,94905.00
2023-05-19T09:30:14.263Z,94901.00
2023-05-19T09:31:14.211Z,94901.00
2023-05-19T09:32:14.255Z,94899.00
2023-05-19T09:33:14.309Z,94897.00
2023-05-19T09:34:14.196Z,94897.00
2023-05-19T09:35:14.214Z,94893.00
2023-05-19T09:36:14.194Z,94891.00
2023-05-19T09:37:14.184Z,94895.00
2023-05-19T09:38:14.192Z,94895.00
2023-05-19T09:39:14.164Z,94893.00
2023-05-19T09:40:14.177Z,94893.00
2023-05-19T09:41:14.195Z,94893.00
2023-05-19T09:42:14.145Z,94893.00
2023-05-19T09:43:14.140Z,94889.00
2023-05-19T09:44:14.166Z,94889.00
2023-05-19T09:45:14.141Z,94891.00
2023-05-19T09:46:14.869Z,94878.00
2023-05-19T09:47:14.113Z,94876.00
2023-05-19T09:48:14.115Z,94874.00
2023-05-19T09:49:14.150Z,94872.00
2023-05-19T09:50:14.146Z,94870.00
2023-05-19T09:51:14.087Z,94868.00
2023-05-19T09:52:14.120Z,94868.00
2023-05-19T09:53:14.112Z,94870.00
2023-05-19T09:54:14.107Z,94866.00
2023-05-19T09:55:14.063Z,94866.00
2023-05-19T09:56:14.078Z,94862.00
2023-05-19T09:57:14.078Z,94864.00
2023-05-19T09:58:14.076Z,94862.00
2023-05-19T09:59:14.049Z,94860.00
2023-05-19T10:00:14.106Z,94858.00
2023-05-19T10:01:14.156Z,94858.00
2023-05-19T10:02:14.166Z,94854.00
2023-05-19T10:03:14.231Z,94854.00
2023-05-19T10:04:14.226Z,94850.00
2023-05-19T10:05:14.386Z,94842.00
2023-05-19T10:06:14.265Z,94840.00
2023-05-19T10:07:14.348Z,94838.00
2023-05-19T10:08:14.338Z,94842.00
2023-05-19T10:09:14.380Z,94840.00
2023-05-19T10:10:14.417Z,94838.00
2023-05-19T10:11:14.444Z,94834.00
2023-05-19T10:12:14.479Z,94834.00
2023-05-19T10:13:14.496Z,94834.00
2023-05-19T10:14:14.487Z,94833.00
2023-05-19T10:15:14.536Z,94833.00
2023-05-19T10:16:14.609Z,94829.00
2023-05-19T10:17:14.572Z,94827.00
2023-05-19T10:18:14.671Z,94825.00
2023-05-19T10:19:14.761Z,94823.00
2023-05-19T10:20:14.705Z,94825.00
2023-05-19T10:21:14.741Z,94819.00
2023-05-19T10:22:14.766Z,94821.00
2023-05-19T10:23:14.788Z,94821.00
2023-05-19T10:24:14.862Z,94821.00
2023-05-19T10:25:14.867Z,94817.00
2023-05-19T10:26:14.947Z,94815.00
2023-05-19T10:27:14.951Z,94813.00
2023-05-19T10:28:15.018Z,94815.00
2023-05-19T10:29:15.029Z,94809.00
2023-05-19T10:30:16.342Z,94809.00
2023-05-19T10:31:15.078Z,94817.00
2023-05-19T10:32:15.092Z,94805.00
2023-05-19T10:33:15.123Z,94809.00
2023-05-19T10:34:15.143Z,94807.00
2023-05-19T10:35:15.141Z,94803.00
2023-05-19T10:36:15.177Z,94803.00
2023-05-19T10:37:15.200Z,94799.00
2023-05-19T10:38:15.264Z,94793.00
2023-05-19T10:39:15.278Z,94795.00
2023-05-19T10:40:15.300Z,94787.00
2023-05-19T10:41:15.305Z,94791.00
2023-05-19T10:42:15.326Z,94785.00
2023-05-19T10:43:15.346Z,94789.00
2023-05-19T10:44:15.394Z,94789.00
2023-05-19T10:45:15.396Z,94785.00
2023-05-19T10:46:15.451Z,94789.00
2023-05-19T10:47:15.521Z,94789.00
2023-05-19T10:48:15.525Z,94783.00
2023-05-19T10:49:15.538Z,94782.00
2023-05-19T10:50:15.759Z,94782.00
2023-05-19T10:51:15.643Z,94787.00
2023-05-19T10:52:15.661Z,94785.00
2023-05-19T10:53:15.702Z,94783.00
2023-05-19T10:54:15.704Z,94778.00
2023-05-19T10:55:15.790Z,94778.00
2023-05-19T10:56:15.783Z,94776.00
2023-05-19T10:57:15.846Z,94772.00
2023-05-19T10:58:15.896Z,94772.00
2023-05-19T10:59:15.907Z,94778.00
2023-05-19T11:00:15.941Z,94772.00
2023-05-19T11:01:16.040Z,94776.00
2023-05-19T11:02:16.099Z,94768.00
2023-05-19T11:03:16.123Z,94768.00
2023-05-19T11:04:16.126Z,94770.00
2023-05-19T11:05:16.103Z,94766.00
2023-05-19T11:06:16.153Z,94772.00
2023-05-19T11:07:16.168Z,94768.00
2023-05-19T11:08:16.200Z,94766.00
2023-05-19T11:09:16.213Z,94764.00
2023-05-19T11:10:16.283Z,94766.00
2023-05-19T11:11:16.318Z,94768.00
2023-05-19T11:12:16.333Z,94768.00
2023-05-19T11:13:16.359Z,94766.00
2023-05-19T11:14:16.417Z,94762.00
2023-05-19T11:15:16.644Z,94766.00
2023-05-19T11:16:16.431Z,94768.00
2023-05-19T11:17:16.479Z,94768.00
2023-05-19T11:18:16.518Z,94766.00
2023-05-19T11:19:16.547Z,94766.00
2023-05-19T11:20:16.601Z,94762.00
2023-05-19T11:21:16.693Z,94762.00
2023-05-19T11:22:16.644Z,94756.00
2023-05-19T11:23:16.729Z,94754.00
2023-05-19T11:24:16.737Z,94752.00
2023-05-19T11:25:16.739Z,94746.00
2023-05-19T11:26:16.791Z,94752.00
2023-05-19T11:27:16.779Z,94752.00
2023-05-19T11:28:16.839Z,94746.00
2023-05-19T11:29:16.858Z,94750.00
2023-05-19T11:30:16.903Z,94744.00
2023-05-19T11:31:16.940Z,94744.00
2023-05-19T11:32:16.971Z,94740.00
2023-05-19T11:33:17.001Z,94740.00
2023-05-19T11:34:16.993Z,94740.00
2023-05-19T11:35:17.038Z,94732.00
2023-05-19T11:36:17.064Z,94734.00
2023-05-19T11:37:17.079Z,94732.00
2023-05-19T11:38:17.134Z,94731.00
2023-05-19T11:39:17.136Z,94729.00
2023-05-19T11:40:17.201Z,94732.00
2023-05-19T11:41:18.906Z,94731.00
2023-05-19T11:42:17.171Z,94729.00
2023-05-19T11:43:17.241Z,94723.00
2023-05-19T11:44:17.197Z,94723.00
2023-05-19T11:45:17.157Z,94719.00
2023-05-19T11:46:17.167Z,94721.00
2023-05-19T11:47:17.181Z,94719.00